Time;durP1;ratioP1;P1;durP2;ratioP2;P2;SDS_P1;SDS_P2;PMS_P1;PMS_P2;Temp;Humidity;BMP_temperature;BMP_pressure;BME280_temperature;BME280_humidity;BME280_pressure;Samples;Min_cycle;Max_cycle;Signal;HPM_P1;HPM_P2
2021/01/28 00:00:28;;;;;;;12.75;4.50;;;-1.20;93.50;;;;;;5021752;28;20053;-57
2021/01/28 00:02:55;;;;;;;9.45;3.25;;;-1.20;93.60;;;;;;5001754;28;20790;-57
2021/01/28 00:05:23;;;;;;;10.63;3.53;;;-1.30;93.60;;;;;;5009969;28;20048;-57
2021/01/28 00:07:50;;;;;;;10.80;3.55;;;-1.20;93.60;;;;;;5011602;28;20213;-57
2021/01/28 00:10:17;;;;;;;13.02;3.67;;;-1.30;93.60;;;;;;5010440;28;20056;-57
2021/01/28 00:12:46;;;;;;;11.13;3.72;;;-1.30;93.90;;;;;;5010861;28;20147;-56
2021/01/28 00:15:14;;;;;;;18.70;5.07;;;-1.30;94.00;;;;;;5010872;28;20062;-57
2021/01/28 00:17:41;;;;;;;13.05;4.28;;;-1.30;94.10;;;;;;5008327;28;20042;-56
2021/01/28 00:20:21;;;;;;;11.32;3.47;;;-1.40;94.40;;;;;;5011620;28;20044;-56
2021/01/28 00:22:48;;;;;;;11.93;4.07;;;-1.40;94.60;;;;;;5008634;28;20034;-57
2021/01/28 00:25:17;;;;;;;12.73;4.38;;;-1.40;95.00;;;;;;5005959;28;20050;-57
2021/01/28 00:27:45;;;;;;;11.88;3.92;;;-1.40;95.20;;;;;;5006554;28;20073;-56
2021/01/28 00:30:22;;;;;;;11.65;3.45;;;-1.50;95.20;;;;;;5011270;28;20033;-57
2021/01/28 00:32:49;;;;;;;12.43;4.82;;;-1.50;95.40;;;;;;5012709;28;20112;-57
2021/01/28 00:35:24;;;;;;;13.25;4.43;;;-1.50;95.50;;;;;;5009696;28;20045;-57
2021/01/28 00:37:51;;;;;;;7.53;3.75;;;-1.50;95.30;;;;;;5011965;28;20042;-57
2021/01/28 00:40:18;;;;;;;10.95;4.18;;;-1.50;95.30;;;;;;5010404;28;20048;-56
2021/01/28 00:42:47;;;;;;;14.52;4.07;;;-1.50;95.30;;;;;;5009981;28;20089;-57
2021/01/28 00:45:19;;;;;;;12.80;4.20;;;-1.50;95.30;;;;;;5000228;28;20128;-58
2021/01/28 00:47:46;;;;;;;12.43;4.13;;;-1.50;95.20;;;;;;5009070;28;20042;-57
2021/01/28 00:50:16;;;;;;;11.18;3.83;;;-1.50;95.20;;;;;;5009809;28;20038;-56
2021/01/28 00:52:42;;;;;;;7.85;3.15;;;-1.50;95.20;;;;;;5009374;28;20052;-57
2021/01/28 00:55:12;;;;;;;7.38;2.63;;;-1.50;95.20;;;;;;5018595;28;20046;-56
2021/01/28 00:57:43;;;;;;;7.45;2.92;;;-1.50;95.80;;;;;;5004508;28;20461;-57
2021/01/28 01:00:28;;;;;;;13.95;4.32;;;-1.50;95.60;;;;;;5008437;28;20053;-57
2021/01/28 01:02:55;;;;;;;10.80;2.97;;;-1.60;95.30;;;;;;5001457;28;20497;-57
2021/01/28 01:05:24;;;;;;;9.90;3.47;;;-1.60;95.60;;;;;;4993603;28;20054;-58
2021/01/28 01:07:51;;;;;;;13.45;3.00;;;-1.60;95.70;;;;;;5008389;28;20523;-56
2021/01/28 01:10:46;;;;;;;9.35;3.13;;;-1.70;95.60;;;;;;5014153;28;20092;-56
2021/01/28 01:13:20;;;;;;;12.77;3.33;;;-1.70;95.90;;;;;;5021426;28;20081;-57
2021/01/28 01:15:50;;;;;;;10.60;3.08;;;-1.70;96.00;;;;;;5008411;28;20105;-57
2021/01/28 01:18:24;;;;;;;14.10;3.58;;;-1.70;96.00;;;;;;5005514;28;20047;-57
2021/01/28 01:20:51;;;;;;;10.82;3.58;;;-1.80;95.90;;;;;;5007533;28;20525;-56
2021/01/28 01:23:23;;;;;;;10.80;3.63;;;-1.80;96.10;;;;;;5008051;28;20129;-56
2021/01/28 01:26:09;;;;;;;13.60;3.75;;;-1.80;96.30;;;;;;5004362;28;20046;-56
2021/01/28 01:28:38;;;;;;;17.73;5.30;;;-1.80;96.50;;;;;;5024519;28;20038;-58
2021/01/28 01:31:14;;;;;;;10.50;4.00;;;-1.80;97.30;;;;;;5010220;28;20083;-56
2021/01/28 01:33:41;;;;;;;9.98;3.00;;;-1.90;97.80;;;;;;5006779;28;20045;-57
2021/01/28 01:36:10;;;;;;;12.07;3.35;;;-1.90;97.90;;;;;;5000225;28;20128;-57
2021/01/28 01:38:49;;;;;;;17.50;4.88;;;-1.90;98.10;;;;;;5001157;28;20038;-57
2021/01/28 01:41:19;;;;;;;12.32;3.53;;;-1.90;98.20;;;;;;5005267;28;20058;-56
2021/01/28 01:44:00;;;;;;;11.18;3.60;;;-1.90;98.10;;;;;;5001209;28;20050;-57
2021/01/28 01:46:28;;;;;;;13.70;3.95;;;-1.90;98.10;;;;;;5007725;28;20127;-57
2021/01/28 01:49:01;;;;;;;14.43;3.72;;;-1.90;98.50;;;;;;5006935;28;20501;-57
2021/01/28 01:51:34;;;;;;;11.50;4.15;;;-1.90;98.80;;;;;;5005325;28;20575;-57
2021/01/28 01:54:11;;;;;;;13.73;3.72;;;-1.90;98.90;;;;;;5005579;28;20058;-57
2021/01/28 01:56:54;;;;;;;13.57;3.78;;;-2.00;99.20;;;;;;4996812;28;20665;-56
2021/01/28 01:59:36;;;;;;;11.23;4.28;;;-2.00;99.30;;;;;;4994130;28;20405;-56
2021/01/28 02:02:23;;;;;;;9.52;3.20;;;-2.00;99.40;;;;;;5008050;28;20479;-56
2021/01/28 02:05:27;;;;;;;9.68;3.40;;;-2.10;99.50;;;;;;5016677;28;20054;-56
2021/01/28 02:08:12;;;;;;;13.20;3.90;;;-2.10;99.70;;;;;;5007242;28;20085;-57
2021/01/28 02:11:09;;;;;;;8.43;3.50;;;-2.20;99.90;;;;;;5009506;28;20119;-57
2021/01/28 02:14:03;;;;;;;13.25;4.57;;;-2.20;99.90;;;;;;5006460;28;20049;-57
2021/01/28 02:17:06;;;;;;;12.38;3.90;;;-2.20;99.90;;;;;;5004462;28;20050;-57
2021/01/28 02:19:51;;;;;;;14.55;4.63;;;-2.20;99.90;;;;;;5001661;28;20504;-56
2021/01/28 02:22:24;;;;;;;9.77;3.80;;;-2.20;99.90;;;;;;5013910;28;20049;-57
2021/01/28 02:25:01;;;;;;;13.38;4.55;;;-2.20;99.90;;;;;;5021825;28;20490;-56
2021/01/28 02:27:29;;;;;;;9.38;3.35;;;-2.20;99.90;;;;;;4993834;28;20145;-57
2021/01/28 02:30:17;;;;;;;;;;;-2.20;99.90;;;;;;4990507;28;20045;-56
2021/01/28 02:32:50;;;;;;;14.00;3.00;;;-2.20;99.90;;;;;;5008635;28;19941;-56
2021/01/28 02:35:37;;;;;;;11.82;3.65;;;-2.20;99.90;;;;;;5002639;28;20160;-56
2021/01/28 02:38:10;;;;;;;12.57;3.53;;;-2.20;99.90;;;;;;5005160;28;20061;-56
2021/01/28 02:40:44;;;;;;;9.55;3.45;;;-2.10;99.90;;;;;;5000237;28;20081;-57
2021/01/28 02:43:28;;;;;;;9.65;3.58;;;-2.10;99.90;;;;;;4996548;28;20419;-57
2021/01/28 02:46:19;;;;;;;10.70;3.53;;;-2.20;99.90;;;;;;4995199;28;20520;-56
2021/01/28 02:48:56;;;;;;;10.90;3.50;;;-2.20;99.90;;;;;;5007462;28;20053;-56
2021/01/28 02:51:31;;;;;;;10.90;3.20;;;-2.20;99.90;;;;;;5017499;28;20056;-56
2021/01/28 02:53:59;;;;;;;15.15;4.63;;;-2.20;99.90;;;;;;5006555;28;20141;-58
2021/01/28 02:56:27;;;;;;;9.88;4.05;;;-2.20;99.90;;;;;;5015525;28;20045;-57
2021/01/28 02:58:57;;;;;;;13.75;3.42;;;-2.20;99.90;;;;;;5006778;28;20419;-57
2021/01/28 03:01:28;;;;;;;12.27;3.65;;;-2.30;99.90;;;;;;5018664;28;20132;-56
2021/01/28 03:03:55;;;;;;;11.02;3.63;;;-2.30;99.90;;;;;;5011538;28;20041;-56
2021/01/28 03:06:21;;;;;;;10.15;3.40;;;-2.30;99.90;;;;;;5006102;28;20386;-56
2021/01/28 03:08:57;;;;;;;11.85;4.30;;;-2.40;99.90;;;;;;5012676;28;20040;-56
2021/01/28 03:11:42;;;;;;;10.27;4.13;;;-2.30;99.90;;;;;;5014054;28;20052;-56
2021/01/28 03:14:24;;;;;;;9.43;3.10;;;-2.40;99.90;;;;;;5012834;28;20140;-56
2021/01/28 03:17:02;;;;;;;11.40;3.55;;;-2.40;99.90;;;;;;5011271;28;20054;-56
2021/01/28 03:19:37;;;;;;;11.63;3.63;;;-2.40;99.90;;;;;;5024019;28;20046;-56
2021/01/28 03:22:18;;;;;;;9.02;3.10;;;-2.40;99.90;;;;;;5018663;28;20045;-56
2021/01/28 03:24:49;;;;;;;12.50;3.40;;;-2.40;99.90;;;;;;5009004;28;20050;-57
2021/01/28 03:27:18;;;;;;;10.63;3.80;;;-2.40;99.90;;;;;;5004963;28;20053;-57
2021/01/28 03:29:50;;;;;;;9.10;3.78;;;-2.40;99.90;;;;;;5010297;28;20046;-57
2021/01/28 03:32:17;;;;;;;11.18;3.83;;;-2.40;99.90;;;;;;5010299;28;20056;-56
2021/01/28 03:34:45;;;;;;;12.40;2.90;;;-2.40;99.90;;;;;;5025724;28;20147;-57
2021/01/28 03:37:12;;;;;;;12.52;3.60;;;-2.40;99.90;;;;;;5004011;28;20066;-56
2021/01/28 03:39:53;;;;;;;10.07;3.67;;;-2.40;99.90;;;;;;4995925;28;20042;-56
2021/01/28 03:42:20;;;;;;;9.93;4.03;;;-2.40;99.90;;;;;;5008333;28;20588;-56
2021/01/28 03:44:50;;;;;;;10.00;4.47;;;-2.50;99.90;;;;;;5022851;28;20057;-56
2021/01/28 03:47:17;;;;;;;12.80;4.93;;;-2.50;99.90;;;;;;5010096;28;20046;-57
2021/01/28 03:50:03;;;;;;;13.05;4.38;;;-2.50;99.90;;;;;;5000713;28;20052;-56
2021/01/28 03:52:31;;;;;;;12.43;4.10;;;-2.60;99.90;;;;;;5012146;28;20054;-56
2021/01/28 03:55:29;;;;;;;12.27;3.97;;;-2.50;99.90;;;;;;5012335;28;20045;-57
2021/01/28 03:57:56;;;;;;;11.32;4.30;;;-2.60;99.90;;;;;;5002143;28;20073;-57
2021/01/28 04:00:27;;;;;;;13.00;3.72;;;-2.60;99.90;;;;;;5006392;28;20045;-56
2021/01/28 04:03:03;;;;;;;13.32;3.63;;;-2.60;99.90;;;;;;5013213;28;20050;-57
2021/01/28 04:05:48;;;;;;;11.55;3.78;;;-2.60;99.90;;;;;;5011070;28;20052;-56
2021/01/28 04:08:42;;;;;;;11.23;3.97;;;-2.60;99.90;;;;;;5009436;28;20045;-56
2021/01/28 04:11:41;;;;;;;11.50;4.07;;;-2.70;99.90;;;;;;5016085;28;20054;-56
2021/01/28 04:14:35;;;;;;;9.38;4.03;;;-2.70;99.90;;;;;;4982466;28;20412;-56
2021/01/28 04:17:03;;;;;;;11.52;3.28;;;-2.70;99.90;;;;;;4969327;28;20042;-57
2021/01/28 04:19:31;;;;;;;13.50;3.75;;;-2.80;99.90;;;;;;4989285;28;20046;-57
2021/01/28 04:21:59;;;;;;;12.30;3.78;;;-2.90;99.90;;;;;;4974723;28;20053;-56
2021/01/28 04:24:30;;;;;;;;;;;-2.90;99.90;;;;;;4973475;28;20639;-56
2021/01/28 04:26:57;;;;;;;11.68;2.60;;;-2.90;99.90;;;;;;4976761;28;20424;-56
2021/01/28 04:29:48;;;;;;;11.32;3.95;;;-3.00;99.90;;;;;;4966649;28;20065;-56
2021/01/28 04:32:27;;;;;;;15.90;3.88;;;-3.00;99.90;;;;;;4989582;28;20705;-57
2021/01/28 04:35:33;;;;;;;17.67;4.35;;;-3.10;99.90;;;;;;4962144;28;20513;-56
2021/01/28 04:38:01;;;;;;;13.55;3.92;;;-3.10;99.90;;;;;;4973736;28;20058;-56
2021/01/28 04:40:39;;;;;;;13.38;4.40;;;-3.10;99.90;;;;;;4975136;28;20082;-56
2021/01/28 04:43:29;;;;;;;12.30;3.78;;;-3.10;99.90;;;;;;4969034;28;20839;-56
2021/01/28 04:46:22;;;;;;;17.67;4.47;;;-3.10;99.90;;;;;;4982865;28;20676;-56
2021/01/28 04:48:59;;;;;;;13.07;4.97;;;-3.20;99.90;;;;;;4966207;28;20093;-56
2021/01/28 04:51:56;;;;;;;12.55;4.97;;;-3.20;99.90;;;;;;4999946;28;20137;-56
2021/01/28 04:54:32;;;;;;;21.17;5.50;;;-3.20;99.90;;;;;;5016419;28;20097;-57
2021/01/28 04:57:08;;;;;;;22.25;6.75;;;-3.30;99.90;;;;;;5005806;28;20092;-57
2021/01/28 04:59:44;;;;;;;25.75;8.60;;;-3.30;99.90;;;;;;5007048;28;20045;-56
2021/01/28 05:02:21;;;;;;;20.98;8.00;;;-3.40;99.90;;;;;;5007648;28;20148;-56
2021/01/28 05:05:09;;;;;;;15.63;6.65;;;-3.40;99.90;;;;;;5010240;28;20062;-56
2021/01/28 05:08:03;;;;;;;19.80;6.47;;;-3.50;99.90;;;;;;5004769;28;20065;-56
2021/01/28 05:10:54;;;;;;;19.17;7.78;;;-3.40;99.90;;;;;;5009125;28;20048;-56
2021/01/28 05:13:39;;;;;;;23.00;8.07;;;-3.40;99.90;;;;;;5001847;28;20053;-57
2021/01/28 05:17:08;;;;;;;22.58;8.23;;;-3.40;99.90;;;;;;5006107;28;20081;-56
2021/01/28 05:20:00;;;;;;;25.27;7.18;;;-3.50;99.90;;;;;;4954101;28;20048;-56
2021/01/28 05:23:05;;;;;;;26.55;8.05;;;-3.50;99.90;;;;;;4926612;29;20845;-56
2021/01/28 05:25:41;;;;;;;22.58;7.85;;;-3.50;99.90;;;;;;4954975;28;20055;-56
2021/01/28 05:28:36;;;;;;;24.98;8.60;;;-3.60;99.90;;;;;;4942870;29;20055;-56
2021/01/28 05:31:32;;;;;;;23.50;7.40;;;-3.60;99.90;;;;;;4938968;29;20062;-57
2021/01/28 05:34:32;;;;;;;34.38;9.90;;;-3.60;99.90;;;;;;4946984;29;20514;-58
2021/01/28 05:37:18;;;;;;;33.08;11.15;;;-3.60;99.90;;;;;;4944197;29;20062;-56
2021/01/28 05:40:15;;;;;;;26.20;9.45;;;-3.70;99.90;;;;;;4932063;29;20127;-56
2021/01/28 05:42:52;;;;;;;31.40;10.63;;;-3.70;99.90;;;;;;4947367;28;20045;-57
2021/01/28 05:45:23;;;;;;;28.23;9.57;;;-3.70;99.90;;;;;;4925696;29;20090;-56
2021/01/28 05:48:24;;;;;;;27.27;9.82;;;-3.70;99.90;;;;;;4941532;29;20446;-56
2021/01/28 05:51:11;;;;;;;23.77;8.38;;;-3.70;99.90;;;;;;4946793;29;20086;-57
2021/01/28 05:53:39;;;;;;;24.60;9.40;;;-3.80;99.90;;;;;;4960729;28;20073;-56
2021/01/28 05:56:14;;;;;;;26.88;9.80;;;-3.80;99.90;;;;;;5009987;28;20073;-56
2021/01/28 05:58:55;;;;;;;27.00;9.18;;;-3.80;99.90;;;;;;5008895;28;20050;-56
2021/01/28 06:01:38;;;;;;;23.20;7.53;;;-3.80;99.90;;;;;;5005490;28;20409;-56
2021/01/28 06:04:48;;;;;;;20.60;7.07;;;-3.80;99.90;;;;;;4998450;28;20050;-56
2021/01/28 06:07:34;;;;;;;26.13;8.18;;;-3.80;99.90;;;;;;5008001;28;20046;-57
2021/01/28 06:10:22;;;;;;;25.30;8.18;;;-3.80;99.90;;;;;;5006469;28;20084;-56
2021/01/28 06:13:48;;;;;;;25.88;8.32;;;-3.70;99.90;;;;;;5006567;28;20172;-56
2021/01/28 06:16:59;;;;;;;22.58;9.35;;;-3.80;99.90;;;;;;5005405;28;20762;-57
2021/01/28 06:19:50;;;;;;;27.77;9.10;;;-3.80;99.90;;;;;;5015895;28;20039;-57
2021/01/28 06:22:41;;;;;;;22.08;8.60;;;-3.70;99.90;;;;;;5002679;28;20060;-56
2021/01/28 06:25:56;;;;;;;25.30;8.68;;;-3.70;99.90;;;;;;5010220;28;20481;-56
2021/01/28 06:28:44;;;;;;;;;;;-3.70;99.90;;;;;;5008902;28;20485;-56
2021/01/28 06:31:39;;;;;;;18.25;7.05;;;-3.70;99.90;;;;;;5011485;28;19925;-57
2021/01/28 06:34:27;;;;;;;26.17;8.85;;;-3.70;99.90;;;;;;5011820;28;20057;-56
2021/01/28 06:37:53;;;;;;;23.33;9.27;;;-3.60;99.90;;;;;;5001779;28;20046;-57
2021/01/28 06:40:46;;;;;;;23.10;8.77;;;-3.50;99.90;;;;;;5004006;28;20818;-57
2021/01/28 06:43:38;;;;;;;39.88;14.55;;;-3.50;99.90;;;;;;5008560;28;20062;-57
2021/01/28 06:47:14;;;;;;;31.60;12.25;;;-3.40;99.90;;;;;;5047098;28;20053;-56
2021/01/28 06:50:13;;;;;;;44.50;13.40;;;-3.30;99.90;;;;;;5035196;28;20052;-56
2021/01/28 06:53:07;;;;;;;34.25;13.45;;;-3.20;99.90;;;;;;5046202;28;20048;-57
2021/01/28 06:56:07;;;;;;;36.25;12.85;;;-3.10;99.90;;;;;;5036411;28;20056;-58
2021/01/28 06:59:04;;;;;;;31.42;13.00;;;-3.10;99.90;;;;;;5027967;28;20172;-57
2021/01/28 07:01:38;;;;;;;41.25;13.82;;;-3.00;99.90;;;;;;5042471;28;20042;-57
2021/01/28 07:04:35;;;;;;;38.78;14.57;;;-2.90;99.90;;;;;;5031415;28;20277;-59
2021/01/28 07:16:37;;;;;;;21.48;8.32;;;-2.60;99.90;;;;;;5043833;28;20052;-59
2021/01/28 07:19:14;;;;;;;41.47;11.98;;;-2.40;99.90;;;;;;5033383;28;20526;-59
2021/01/28 07:21:47;;;;;;;51.90;15.82;;;-2.40;99.90;;;;;;5049881;28;20048;-58
2021/01/28 07:24:23;;;;;;;38.92;13.23;;;-2.30;99.90;;;;;;5048619;28;20037;-57
2021/01/28 07:26:59;;;;;;;34.53;11.52;;;-2.20;99.90;;;;;;5045243;28;20120;-59
2021/01/28 07:29:44;;;;;;;36.20;11.55;;;-2.00;99.90;;;;;;5050594;28;20492;-58
2021/01/28 07:32:26;;;;;;;34.20;12.40;;;-2.00;99.90;;;;;;5050575;28;20044;-58
2021/01/28 07:35:26;;;;;;;42.55;13.80;;;-1.80;99.90;;;;;;5037708;28;20053;-58
2021/01/28 07:38:32;;;;;;;35.42;13.77;;;-1.70;99.90;;;;;;5044075;28;20060;-59
2021/01/28 07:41:55;;;;;;;33.60;11.10;;;-1.60;99.90;;;;;;5043315;28;20057;-59
2021/01/28 07:44:44;;;;;;;26.60;10.02;;;-1.50;99.90;;;;;;5037278;28;20079;-57
2021/01/28 07:47:31;;;;;;;28.83;10.50;;;-1.40;99.90;;;;;;5033693;28;20459;-59
2021/01/28 07:50:21;;;;;;;26.77;10.50;;;-1.40;99.90;;;;;;5047263;28;20073;-60
2021/01/28 07:53:18;;;;;;;24.63;10.75;;;-1.30;99.90;;;;;;5044173;28;20037;-58
2021/01/28 07:55:45;;;;;;;25.08;9.95;;;-1.20;99.90;;;;;;5039764;28;20049;-59
2021/01/28 07:58:32;;;;;;;28.58;11.75;;;-1.10;99.90;;;;;;5046512;28;20043;-58
2021/01/28 08:01:13;;;;;;;25.52;9.73;;;-1.00;99.90;;;;;;5050053;28;20392;-58
2021/01/28 08:03:59;;;;;;;24.38;10.45;;;-1.00;99.90;;;;;;5042553;28;20074;-59
2021/01/28 08:06:26;;;;;;;24.20;9.85;;;-0.90;99.90;;;;;;5048323;28;20079;-57
2021/01/28 08:09:16;;;;;;;26.20;9.65;;;-0.80;99.90;;;;;;5049985;28;20056;-58
2021/01/28 08:11:52;;;;;;;25.73;9.00;;;-0.80;99.90;;;;;;5040420;28;20037;-59
2021/01/28 08:14:29;;;;;;;28.00;10.45;;;-0.70;99.90;;;;;;5049013;28;20049;-61
2021/01/28 08:16:56;;;;;;;31.23;11.52;;;-0.60;99.90;;;;;;5042846;28;20049;-59
2021/01/28 08:19:27;;;;;;;38.75;15.55;;;-0.50;99.90;;;;;;5050089;28;20527;-58
2021/01/28 08:22:17;;;;;;;36.05;13.85;;;-0.50;99.90;;;;;;5050319;28;20095;-58
2021/01/28 08:24:57;;;;;;;31.52;12.43;;;-0.40;99.90;;;;;;5061009;28;20052;-58
2021/01/28 08:27:34;;;;;;;30.35;10.27;;;-0.30;99.90;;;;;;5046528;28;20729;-59
2021/01/28 08:30:07;;;;;;;27.88;9.63;;;-0.20;99.90;;;;;;5046198;28;20142;-58
2021/01/28 08:32:35;;;;;;;25.77;10.02;;;-0.10;99.90;;;;;;5047324;28;20044;-57
2021/01/28 08:35:16;;;;;;;24.20;9.60;;;0.00;99.90;;;;;;5048537;28;20036;-59
2021/01/28 08:37:43;;;;;;;24.08;8.43;;;0.00;99.90;;;;;;5049008;28;20036;-59
2021/01/28 08:40:22;;;;;;;27.58;9.38;;;0.10;99.90;;;;;;5058163;28;20106;-59
2021/01/28 08:42:49;;;;;;;30.77;10.80;;;0.10;99.90;;;;;;5040953;28;20484;-60
2021/01/28 08:45:29;;;;;;;30.50;9.25;;;0.20;99.90;;;;;;5044911;28;20045;-58
2021/01/28 08:48:06;;;;;;;26.27;9.25;;;0.30;99.90;;;;;;5047741;28;20059;-59
2021/01/28 08:50:33;;;;;;;29.00;11.52;;;0.40;99.90;;;;;;5046445;28;20081;-58
2021/01/28 08:53:06;;;;;;;40.22;13.60;;;0.50;99.90;;;;;;5050143;28;20052;-58
2021/01/28 08:55:37;;;;;;;30.70;12.23;;;0.50;99.90;;;;;;5049686;28;20028;-57
2021/01/28 08:58:15;;;;;;;41.45;15.20;;;0.60;99.90;;;;;;5051771;28;20072;-58
2021/01/28 09:00:50;;;;;;;37.30;14.93;;;0.70;99.90;;;;;;5043113;28;20041;-60
2021/01/28 09:03:25;;;;;;;28.80;10.55;;;0.80;99.90;;;;;;5047177;28;20037;-58
2021/01/28 09:05:53;;;;;;;29.40;10.63;;;0.90;99.90;;;;;;5043059;28;20045;-58
2021/01/28 09:08:29;;;;;;;24.30;10.85;;;0.90;99.90;;;;;;5043787;28;20492;-58
2021/01/28 09:11:26;;;;;;;26.00;9.52;;;1.00;99.90;;;;;;5040440;28;20041;-58
2021/01/28 09:14:17;;;;;;;25.20;9.15;;;1.10;99.90;;;;;;5044301;28;20037;-58
2021/01/28 09:17:01;;;;;;;22.83;8.55;;;1.10;99.90;;;;;;5027624;28;20069;-58
2021/01/28 09:19:31;;;;;;;25.08;9.57;;;1.20;99.90;;;;;;5029095;28;20472;-58
2021/01/28 09:22:01;;;;;;;25.73;10.27;;;1.20;99.90;;;;;;5031854;28;20041;-58
2021/01/28 09:24:48;;;;;;;31.33;12.82;;;1.20;99.90;;;;;;5023320;28;20042;-58
2021/01/28 09:27:20;;;;;;;28.85;11.50;;;1.30;99.90;;;;;;5003821;28;20145;-57
2021/01/28 09:29:50;;;;;;;32.70;12.63;;;1.40;99.90;;;;;;5019443;28;20053;-57
2021/01/28 09:32:19;;;;;;;53.05;17.42;;;1.40;99.90;;;;;;5023926;28;20516;-58
2021/01/28 09:35:01;;;;;;;51.17;16.50;;;1.50;99.90;;;;;;5023484;28;20057;-58
2021/01/28 09:37:28;;;;;;;40.20;14.30;;;1.50;99.90;;;;;;4999442;28;20668;-59
2021/01/28 09:39:55;;;;;;;49.63;14.25;;;1.60;99.90;;;;;;5025318;28;20040;-59
2021/01/28 09:42:28;;;;;;;27.05;10.75;;;1.70;99.90;;;;;;5015742;28;20733;-58
2021/01/28 09:45:08;;;;;;;28.30;9.90;;;1.70;99.90;;;;;;5013516;28;20060;-58
2021/01/28 09:47:35;;;;;;;27.27;10.10;;;1.70;99.90;;;;;;5018951;28;20408;-59
2021/01/28 09:50:07;;;;;;;31.02;10.85;;;1.90;99.90;;;;;;5025114;28;20053;-58
2021/01/28 09:52:40;;;;;;;25.88;10.02;;;1.90;99.90;;;;;;5019322;28;20372;-59
2021/01/28 09:55:12;;;;;;;25.30;10.18;;;2.00;99.90;;;;;;5027201;28;20079;-57
2021/01/28 09:57:39;;;;;;;23.67;9.35;;;2.10;99.90;;;;;;5021932;28;20411;-58
2021/01/28 10:00:08;;;;;;;25.80;9.60;;;2.20;99.90;;;;;;4993825;28;20050;-58
2021/01/28 10:02:59;;;;;;;23.17;9.10;;;2.30;99.90;;;;;;5025244;28;20053;-58
2021/01/28 10:05:32;;;;;;;20.58;7.93;;;2.40;99.90;;;;;;5018145;28;20456;-59
2021/01/28 10:07:59;;;;;;;21.23;9.20;;;2.40;99.90;;;;;;5018878;28;20049;-58
2021/01/28 10:10:29;;;;;;;28.50;8.77;;;2.60;99.90;;;;;;4978429;28;20583;-58
2021/01/28 10:13:03;;;;;;;24.80;9.02;;;2.60;99.90;;;;;;5010973;28;20113;-59
2021/01/28 10:15:30;;;;;;;24.95;9.43;;;2.70;99.90;;;;;;5036291;28;20048;-59
2021/01/28 10:17:59;;;;;;;26.70;8.88;;;2.70;99.90;;;;;;5046311;28;20064;-58
2021/01/28 10:20:27;;;;;;;22.75;9.23;;;2.60;99.90;;;;;;5045871;28;20045;-58
2021/01/28 10:22:57;;;;;;;37.10;10.85;;;2.70;99.90;;;;;;5034063;28;20048;-57
2021/01/28 10:25:24;;;;;;;29.30;9.23;;;2.70;99.90;;;;;;5045582;28;20082;-58
2021/01/28 10:27:53;;;;;;;22.88;9.32;;;2.70;99.90;;;;;;5053017;28;20041;-57
2021/01/28 10:30:22;;;;;;;24.40;9.70;;;2.80;99.90;;;;;;5047648;28;20432;-59
2021/01/28 10:32:50;;;;;;;36.08;14.65;;;2.70;99.90;;;;;;5048257;28;20468;-58
2021/01/28 10:35:20;;;;;;;27.85;10.90;;;2.80;99.90;;;;;;5043426;28;20519;-57
2021/01/28 10:37:48;;;;;;;43.75;14.73;;;2.80;99.90;;;;;;5045152;28;20041;-58
2021/01/28 10:40:15;;;;;;;53.75;18.80;;;2.80;99.90;;;;;;5047543;28;20060;-59
2021/01/28 10:42:44;;;;;;;40.45;14.23;;;2.80;99.90;;;;;;5033300;28;20033;-60
2021/01/28 10:45:24;;;;;;;25.88;11.02;;;2.90;99.90;;;;;;5047221;28;20045;-59
2021/01/28 10:47:51;;;;;;;31.02;11.85;;;3.00;99.90;;;;;;5025572;28;20053;-59
2021/01/28 10:50:27;;;;;;;30.42;11.23;;;3.10;99.90;;;;;;5025546;28;20077;-60
2021/01/28 10:52:54;;;;;;;24.42;11.25;;;3.10;99.90;;;;;;5035850;28;20042;-61
2021/01/28 10:55:24;;;;;;;24.05;8.82;;;3.20;99.90;;;;;;5025103;28;20045;-61
2021/01/28 10:57:51;;;;;;;23.33;8.85;;;3.20;99.40;;;;;;5034674;28;20115;-63
2021/01/28 11:00:19;;;;;;;21.52;8.80;;;3.30;99.30;;;;;;5045901;28;20056;-60
2021/01/28 11:02:45;;;;;;;21.27;7.95;;;3.30;99.10;;;;;;5045798;28;20049;-60
2021/01/28 11:05:16;;;;;;;16.92;7.28;;;3.30;99.20;;;;;;5032662;28;20056;-59
2021/01/28 11:07:43;;;;;;;18.50;7.93;;;3.40;98.60;;;;;;5039373;28;20037;-60
2021/01/28 11:10:13;;;;;;;27.50;7.97;;;3.50;98.60;;;;;;5056582;28;20152;-59
2021/01/28 11:12:40;;;;;;;19.63;6.90;;;3.70;98.20;;;;;;5046151;28;20503;-59
2021/01/28 11:15:07;;;;;;;18.20;7.75;;;3.80;97.20;;;;;;5050355;28;20526;-58
2021/01/28 11:17:34;;;;;;;18.45;7.13;;;4.00;96.10;;;;;;5029005;28;20057;-59
2021/01/28 11:20:01;;;;;;;18.98;7.55;;;4.10;95.50;;;;;;5042152;28;20028;-59
2021/01/28 11:22:27;;;;;;;18.50;7.32;;;4.20;94.80;;;;;;5034723;28;20059;-59
2021/01/28 11:24:54;;;;;;;19.60;7.35;;;4.20;94.50;;;;;;5048903;28;20059;-58
2021/01/28 11:27:20;;;;;;;20.88;7.97;;;4.30;93.60;;;;;;5050027;28;20496;-58
2021/01/28 11:29:48;;;;;;;18.77;8.35;;;4.40;93.50;;;;;;5042350;28;20115;-58
2021/01/28 11:32:14;;;;;;;21.58;8.13;;;4.60;93.40;;;;;;5044448;28;20054;-59
2021/01/28 11:34:41;;;;;;;25.42;8.38;;;4.70;92.70;;;;;;5046120;28;20095;-59
2021/01/28 11:37:08;;;;;;;27.80;8.32;;;4.70;92.20;;;;;;5049351;28;20477;-59
2021/01/28 11:39:35;;;;;;;18.20;6.97;;;4.70;92.00;;;;;;5048827;28;20440;-59
2021/01/28 11:42:01;;;;;;;16.73;6.45;;;4.80;92.10;;;;;;5048355;28;20037;-60
2021/01/28 11:44:27;;;;;;;15.98;6.55;;;4.70;92.30;;;;;;5047432;28;20060;-59
2021/01/28 11:46:54;;;;;;;16.58;7.10;;;4.70;92.00;;;;;;5040004;28;20812;-60
2021/01/28 11:49:21;;;;;;;17.13;7.22;;;4.70;91.70;;;;;;5049195;28;20052;-58
2021/01/28 11:51:48;;;;;;;15.85;7.13;;;4.70;92.10;;;;;;5052413;28;20863;-58
2021/01/28 11:54:15;;;;;;;18.77;6.72;;;4.60;91.80;;;;;;5047204;28;20073;-60
2021/01/28 11:56:42;;;;;;;17.52;7.20;;;4.60;92.10;;;;;;5047860;28;20435;-58
2021/01/28 11:59:09;;;;;;;13.70;5.97;;;4.60;92.40;;;;;;5047227;28;20041;-60
2021/01/28 12:01:35;;;;;;;14.13;5.90;;;4.70;92.60;;;;;;5046918;28;20041;-61
2021/01/28 12:04:02;;;;;;;15.85;6.60;;;4.70;92.60;;;;;;5049506;28;20049;-57
2021/01/28 12:06:29;;;;;;;17.20;6.95;;;4.80;92.70;;;;;;5039831;28;20159;-58
2021/01/28 12:08:56;;;;;;;19.35;8.15;;;4.70;92.60;;;;;;5048706;28;20404;-59
2021/01/28 12:11:23;;;;;;;20.73;7.93;;;4.60;92.90;;;;;;5051168;28;20052;-59
2021/01/28 12:13:52;;;;;;;20.98;7.68;;;4.50;93.60;;;;;;5046567;28;20041;-59
2021/01/28 12:16:19;;;;;;;20.83;6.95;;;4.30;94.00;;;;;;5034528;28;20057;-59
2021/01/28 12:18:46;;;;;;;19.15;6.68;;;4.40;94.60;;;;;;5059589;28;20052;-60
2021/01/28 12:21:13;;;;;;;25.35;6.90;;;4.40;94.90;;;;;;5050384;28;20033;-60
2021/01/28 12:23:40;;;;;;;19.27;7.32;;;4.50;94.30;;;;;;5048701;28;20452;-60
2021/01/28 12:26:06;;;;;;;15.57;6.47;;;4.60;93.90;;;;;;5030947;28;20128;-62
2021/01/28 12:28:33;;;;;;;40.58;11.55;;;4.60;93.90;;;;;;5048690;28;20446;-60
2021/01/28 12:30:59;;;;;;;27.65;8.70;;;4.80;93.70;;;;;;5049583;28;20045;-59
2021/01/28 12:33:26;;;;;;;25.02;8.60;;;5.00;93.50;;;;;;5051975;28;20387;-58
2021/01/28 12:35:53;;;;;;;34.33;11.10;;;5.20;92.80;;;;;;5051626;28;20049;-57
2021/01/28 12:38:20;;;;;;;31.25;10.23;;;5.40;91.80;;;;;;5029909;28;20041;-58
2021/01/28 12:40:46;;;;;;;35.78;10.25;;;5.60;90.70;;;;;;5046232;28;20048;-59
2021/01/28 12:43:13;;;;;;;26.13;9.43;;;5.60;90.30;;;;;;5049247;28;20074;-59
2021/01/28 12:45:39;;;;;;;24.30;8.50;;;5.50;90.10;;;;;;5049639;28;20111;-59
2021/01/28 12:48:06;;;;;;;22.55;8.13;;;5.40;90.20;;;;;;5050531;28;20045;-58
2021/01/28 12:50:33;;;;;;;23.05;7.93;;;5.30;90.70;;;;;;5051219;28;20136;-58
2021/01/28 12:52:59;;;;;;;13.40;5.93;;;5.10;90.60;;;;;;5049966;28;20438;-59
2021/01/28 12:55:26;;;;;;;12.25;5.05;;;5.00;90.50;;;;;;5049362;28;20448;-59
2021/01/28 12:57:53;;;;;;;11.95;4.85;;;4.90;90.20;;;;;;5049012;28;20040;-59
2021/01/28 13:00:21;;;;;;;13.15;5.28;;;4.80;89.10;;;;;;5051309;28;20040;-59
2021/01/28 13:02:49;;;;;;;13.32;5.53;;;4.80;89.40;;;;;;5050286;28;20613;-59
2021/01/28 13:05:17;;;;;;;16.50;5.95;;;4.70;89.70;;;;;;5047623;28;20408;-59
2021/01/28 13:07:43;;;;;;;16.23;6.75;;;4.70;90.80;;;;;;5048630;28;20103;-60
2021/01/28 13:10:12;;;;;;;16.63;6.32;;;4.70;91.40;;;;;;5044289;28;20056;-59
2021/01/28 13:12:39;;;;;;;13.38;5.72;;;4.80;91.90;;;;;;5051615;28;20403;-60
2021/01/28 13:15:08;;;;;;;20.05;6.30;;;4.90;92.30;;;;;;5047889;28;20428;-60
2021/01/28 13:17:34;;;;;;;15.90;6.50;;;5.10;91.80;;;;;;5039146;28;20476;-61
2021/01/28 13:20:01;;;;;;;12.60;5.25;;;5.60;90.40;;;;;;5048433;28;20139;-61
2021/01/28 13:22:28;;;;;;;13.52;5.82;;;6.10;87.80;;;;;;5047200;28;20049;-61
2021/01/28 13:24:54;;;;;;;15.20;6.38;;;6.60;84.50;;;;;;5049563;28;20051;-61
2021/01/28 13:27:21;;;;;;;27.17;12.45;;;7.20;82.00;;;;;;5049165;28;20124;-59
2021/01/28 13:29:48;;;;;;;12.02;5.85;;;7.70;76.50;;;;;;5033997;28;20049;-58
2021/01/28 13:32:14;;;;;;;18.30;7.80;;;7.90;73.50;;;;;;5028672;28;20049;-61
2021/01/28 13:34:41;;;;;;;11.00;5.10;;;7.80;73.00;;;;;;5040949;28;20132;-61
2021/01/28 13:37:07;;;;;;;17.27;7.15;;;7.60;72.70;;;;;;5044535;28;20041;-61